sensor_id;sensor_type;location;lat;lon;timestamp;temperature;humidity
9915;DHT22;4996;48.746;9.174;2023-04-25T00:00:35;10.50;99.90
9915;DHT22;4996;48.746;9.174;2023-04-25T00:03:00;10.40;99.90
9915;DHT22;4996;48.746;9.174;2023-04-25T00:05:26;10.40;99.90
9915;DHT22;4996;48.746;9.174;2023-04-25T00:07:52;10.40;99.90
9915;DHT22;4996;48.746;9.174;2023-04-25T00:10:19;10.40;99.90
9915;DHT22;4996;48.746;9.174;2023-04-25T00:12:44;10.40;99.90
9915;DHT22;4996;48.746;9.174;2023-04-25T00:15:11;10.40;99.90
9915;DHT22;4996;48.746;9.174;2023-04-25T00:17:37;10.40;99.90
9915;DHT22;4996;48.746;9.174;2023-04-25T00:20:04;10.50;99.90
9915;DHT22;4996;48.746;9.174;2023-04-25T00:22:36;10.40;99.90
9915;DHT22;4996;48.746;9.174;2023-04-25T00:25:05;10.40;99.90
9915;DHT22;4996;48.746;9.174;2023-04-25T00:27:31;10.40;99.90
9915;DHT22;4996;48.746;9.174;2023-04-25T00:29:57;10.40;99.90
9915;DHT22;4996;48.746;9.174;2023-04-25T00:32:22;10.40;99.90
9915;DHT22;4996;48.746;9.174;2023-04-25T00:34:48;10.40;99.90
9915;DHT22;4996;48.746;9.174;2023-04-25T00:37:13;10.30;99.90
9915;DHT22;4996;48.746;9.174;2023-04-25T00:39:39;10.40;99.90
9915;DHT22;4996;48.746;9.174;2023-04-25T00:42:05;10.50;99.90
9915;DHT22;4996;48.746;9.174;2023-04-25T00:44:31;10.50;99.90
9915;DHT22;4996;48.746;9.174;2023-04-25T00:46:57;10.50;99.90
9915;DHT22;4996;48.746;9.174;2023-04-25T00:49:23;10.40;99.90
9915;DHT22;4996;48.746;9.174;2023-04-25T00:51:49;10.40;99.90
9915;DHT22;4996;48.746;9.174;2023-04-25T00:54:14;10.50;99.90
9915;DHT22;4996;48.746;9.174;2023-04-25T00:56:41;10.60;99.90
9915;DHT22;4996;48.746;9.174;2023-04-25T00:59:08;10.60;99.90
9915;DHT22;4996;48.746;9.174;2023-04-25T01:01:35;10.40;99.90
9915;DHT22;4996;48.746;9.174;2023-04-25T01:04:01;10.40;99.90
9915;DHT22;4996;48.746;9.174;2023-04-25T01:06:26;10.40;99.90
9915;DHT22;4996;48.746;9.174;2023-04-25T01:08:53;10.40;99.90
9915;DHT22;4996;48.746;9.174;2023-04-25T01:11:18;10.40;99.90
9915;DHT22;4996;48.746;9.174;2023-04-25T01:13:44;10.40;99.90
9915;DHT22;4996;48.746;9.174;2023-04-25T01:16:10;10.40;99.90
9915;DHT22;4996;48.746;9.174;2023-04-25T01:18:40;10.50;99.90
9915;DHT22;4996;48.746;9.174;2023-04-25T01:21:10;10.40;99.90
9915;DHT22;4996;48.746;9.174;2023-04-25T01:23:37;10.50;99.90
9915;DHT22;4996;48.746;9.174;2023-04-25T01:26:03;10.40;99.90
9915;DHT22;4996;48.746;9.174;2023-04-25T01:28:29;10.30;99.90
9915;DHT22;4996;48.746;9.174;2023-04-25T01:30:56;10.30;99.90
9915;DHT22;4996;48.746;9.174;2023-04-25T01:33:22;10.30;99.90
9915;DHT22;4996;48.746;9.174;2023-04-25T01:35:47;10.30;99.90
9915;DHT22;4996;48.746;9.174;2023-04-25T01:38:14;10.30;99.90
9915;DHT22;4996;48.746;9.174;2023-04-25T01:40:40;10.30;99.90
9915;DHT22;4996;48.746;9.174;2023-04-25T01:43:07;10.30;99.90
9915;DHT22;4996;48.746;9.174;2023-04-25T01:45:36;10.30;99.90
9915;DHT22;4996;48.746;9.174;2023-04-25T01:48:04;10.30;99.90
9915;DHT22;4996;48.746;9.174;2023-04-25T01:50:30;10.20;99.90
9915;DHT22;4996;48.746;9.174;2023-04-25T01:52:56;10.10;99.90
9915;DHT22;4996;48.746;9.174;2023-04-25T01:55:22;10.00;99.90
9915;DHT22;4996;48.746;9.174;2023-04-25T01:57:47;10.00;99.90
9915;DHT22;4996;48.746;9.174;2023-04-25T02:00:13;9.90;99.90
9915;DHT22;4996;48.746;9.174;2023-04-25T02:02:38;9.90;99.90
9915;DHT22;4996;48.746;9.174;2023-04-25T02:05:04;9.80;99.90
9915;DHT22;4996;48.746;9.174;2023-04-25T02:07:30;9.80;99.90
9915;DHT22;4996;48.746;9.174;2023-04-25T02:09:57;9.90;99.90
9915;DHT22;4996;48.746;9.174;2023-04-25T02:12:22;9.80;99.90
9915;DHT22;4996;48.746;9.174;2023-04-25T02:14:48;9.80;99.90
9915;DHT22;4996;48.746;9.174;2023-04-25T02:17:13;9.80;99.90
9915;DHT22;4996;48.746;9.174;2023-04-25T02:19:39;9.80;99.90
9915;DHT22;4996;48.746;9.174;2023-04-25T02:22:05;9.80;99.90
9915;DHT22;4996;48.746;9.174;2023-04-25T02:24:30;9.70;99.90
9915;DHT22;4996;48.746;9.174;2023-04-25T02:26:57;9.80;99.90
9915;DHT22;4996;48.746;9.174;2023-04-25T02:29:23;9.70;99.90
9915;DHT22;4996;48.746;9.174;2023-04-25T02:31:48;9.80;99.90
9915;DHT22;4996;48.746;9.174;2023-04-25T02:34:14;9.80;99.90
9915;DHT22;4996;48.746;9.174;2023-04-25T02:36:39;9.80;99.90
9915;DHT22;4996;48.746;9.174;2023-04-25T02:39:05;9.70;99.90
9915;DHT22;4996;48.746;9.174;2023-04-25T02:41:30;9.80;99.90
9915;DHT22;4996;48.746;9.174;2023-04-25T02:43:56;9.80;99.90
9915;DHT22;4996;48.746;9.174;2023-04-25T02:46:21;9.80;99.90
9915;DHT22;4996;48.746;9.174;2023-04-25T02:48:47;9.90;99.90
9915;DHT22;4996;48.746;9.174;2023-04-25T02:51:12;9.90;99.90
9915;DHT22;4996;48.746;9.174;2023-04-25T02:53:39;9.80;99.90
9915;DHT22;4996;48.746;9.174;2023-04-25T02:56:05;9.80;99.90
9915;DHT22;4996;48.746;9.174;2023-04-25T02:58:30;9.80;99.90
9915;DHT22;4996;48.746;9.174;2023-04-25T03:00:56;9.80;99.90
9915;DHT22;4996;48.746;9.174;2023-04-25T03:03:21;9.80;99.90
9915;DHT22;4996;48.746;9.174;2023-04-25T03:05:49;9.80;99.90
9915;DHT22;4996;48.746;9.174;2023-04-25T03:08:15;9.80;99.90
9915;DHT22;4996;48.746;9.174;2023-04-25T03:10:41;9.80;99.90
9915;DHT22;4996;48.746;9.174;2023-04-25T03:13:07;9.70;99.90
9915;DHT22;4996;48.746;9.174;2023-04-25T03:15:32;9.80;99.90
9915;DHT22;4996;48.746;9.174;2023-04-25T03:17:58;9.80;99.90
9915;DHT22;4996;48.746;9.174;2023-04-25T03:20:23;9.70;99.90
9915;DHT22;4996;48.746;9.174;2023-04-25T03:22:49;9.70;99.90
9915;DHT22;4996;48.746;9.174;2023-04-25T03:25:15;9.70;99.90
9915;DHT22;4996;48.746;9.174;2023-04-25T03:27:41;9.70;99.90
9915;DHT22;4996;48.746;9.174;2023-04-25T03:30:07;9.70;99.90
9915;DHT22;4996;48.746;9.174;2023-04-25T03:32:33;9.60;99.90
9915;DHT22;4996;48.746;9.174;2023-04-25T03:34:59;9.70;99.90
9915;DHT22;4996;48.746;9.174;2023-04-25T03:37:24;9.70;99.90
9915;DHT22;4996;48.746;9.174;2023-04-25T03:39:50;9.70;99.90
9915;DHT22;4996;48.746;9.174;2023-04-25T03:42:15;9.70;99.90
9915;DHT22;4996;48.746;9.174;2023-04-25T03:44:41;9.60;99.90
9915;DHT22;4996;48.746;9.174;2023-04-25T03:47:06;9.60;99.90
9915;DHT22;4996;48.746;9.174;2023-04-25T03:49:32;9.60;99.90
9915;DHT22;4996;48.746;9.174;2023-04-25T03:51:58;9.60;99.90
9915;DHT22;4996;48.746;9.174;2023-04-25T03:54:23;9.60;99.90
9915;DHT22;4996;48.746;9.174;2023-04-25T03:56:49;9.50;99.90
9915;DHT22;4996;48.746;9.174;2023-04-25T03:59:14;9.60;99.90
9915;DHT22;4996;48.746;9.174;2023-04-25T04:01:40;9.60;99.90
9915;DHT22;4996;48.746;9.174;2023-04-25T04:04:05;9.50;99.90
9915;DHT22;4996;48.746;9.174;2023-04-25T04:06:31;9.40;99.90
9915;DHT22;4996;48.746;9.174;2023-04-25T04:08:56;9.40;99.90
9915;DHT22;4996;48.746;9.174;2023-04-25T04:11:22;9.40;99.90
9915;DHT22;4996;48.746;9.174;2023-04-25T04:13:47;9.40;99.90
9915;DHT22;4996;48.746;9.174;2023-04-25T04:16:13;9.40;99.90
9915;DHT22;4996;48.746;9.174;2023-04-25T04:18:38;9.40;99.90
9915;DHT22;4996;48.746;9.174;2023-04-25T04:21:04;9.50;99.90
9915;DHT22;4996;48.746;9.174;2023-04-25T04:23:29;9.60;99.90
9915;DHT22;4996;48.746;9.174;2023-04-25T04:25:55;9.60;99.90
9915;DHT22;4996;48.746;9.174;2023-04-25T04:28:21;9.50;99.90
9915;DHT22;4996;48.746;9.174;2023-04-25T04:30:47;9.50;99.90
9915;DHT22;4996;48.746;9.174;2023-04-25T04:33:13;9.40;99.90
9915;DHT22;4996;48.746;9.174;2023-04-25T04:35:40;9.50;99.90
9915;DHT22;4996;48.746;9.174;2023-04-25T04:38:06;9.40;99.90
9915;DHT22;4996;48.746;9.174;2023-04-25T04:40:32;9.40;99.90
9915;DHT22;4996;48.746;9.174;2023-04-25T04:42:58;9.40;99.90
9915;DHT22;4996;48.746;9.174;2023-04-25T04:45:24;9.40;99.90
9915;DHT22;4996;48.746;9.174;2023-04-25T04:47:49;9.50;99.90
9915;DHT22;4996;48.746;9.174;2023-04-25T04:50:15;9.60;99.90
9915;DHT22;4996;48.746;9.174;2023-04-25T04:52:41;9.60;99.90
9915;DHT22;4996;48.746;9.174;2023-04-25T04:55:07;9.50;99.90
9915;DHT22;4996;48.746;9.174;2023-04-25T04:57:34;9.50;99.90
9915;DHT22;4996;48.746;9.174;2023-04-25T05:00:00;9.40;99.90
9915;DHT22;4996;48.746;9.174;2023-04-25T05:02:26;9.40;99.90
9915;DHT22;4996;48.746;9.174;2023-04-25T05:04:52;9.30;99.90
9915;DHT22;4996;48.746;9.174;2023-04-25T05:07:18;9.40;99.90
9915;DHT22;4996;48.746;9.174;2023-04-25T05:09:44;9.50;99.90
9915;DHT22;4996;48.746;9.174;2023-04-25T05:12:10;9.50;99.90
9915;DHT22;4996;48.746;9.174;2023-04-25T05:14:36;9.40;99.90
9915;DHT22;4996;48.746;9.174;2023-04-25T05:17:01;9.50;99.90
9915;DHT22;4996;48.746;9.174;2023-04-25T05:19:30;9.50;99.90
9915;DHT22;4996;48.746;9.174;2023-04-25T05:21:55;9.70;99.90
9915;DHT22;4996;48.746;9.174;2023-04-25T05:24:21;9.80;99.90
9915;DHT22;4996;48.746;9.174;2023-04-25T05:26:46;9.70;99.90
9915;DHT22;4996;48.746;9.174;2023-04-25T05:29:12;9.80;99.90
9915;DHT22;4996;48.746;9.174;2023-04-25T05:31:37;9.60;99.90
9915;DHT22;4996;48.746;9.174;2023-04-25T05:34:03;9.40;99.90
9915;DHT22;4996;48.746;9.174;2023-04-25T05:36:28;9.40;99.90
9915;DHT22;4996;48.746;9.174;2023-04-25T05:38:54;9.50;99.90
9915;DHT22;4996;48.746;9.174;2023-04-25T05:41:20;9.70;99.90
9915;DHT22;4996;48.746;9.174;2023-04-25T05:43:45;9.80;99.90
9915;DHT22;4996;48.746;9.174;2023-04-25T05:46:14;9.80;99.90
9915;DHT22;4996;48.746;9.174;2023-04-25T05:48:39;9.90;99.90
9915;DHT22;4996;48.746;9.174;2023-04-25T05:51:05;10.00;99.90
9915;DHT22;4996;48.746;9.174;2023-04-25T05:53:30;10.00;99.90
9915;DHT22;4996;48.746;9.174;2023-04-25T05:55:56;10.10;99.90
9915;DHT22;4996;48.746;9.174;2023-04-25T05:58:22;10.20;99.90
9915;DHT22;4996;48.746;9.174;2023-04-25T06:00:47;10.20;99.90
9915;DHT22;4996;48.746;9.174;2023-04-25T06:03:13;10.20;99.90
9915;DHT22;4996;48.746;9.174;2023-04-25T06:05:41;10.20;99.90
9915;DHT22;4996;48.746;9.174;2023-04-25T06:08:07;10.10;99.90
9915;DHT22;4996;48.746;9.174;2023-04-25T06:10:33;10.00;99.90
9915;DHT22;4996;48.746;9.174;2023-04-25T06:12:58;9.90;99.90
9915;DHT22;4996;48.746;9.174;2023-04-25T06:15:24;10.00;99.90
9915;DHT22;4996;48.746;9.174;2023-04-25T06:17:49;9.90;99.90
9915;DHT22;4996;48.746;9.174;2023-04-25T06:20:15;10.00;99.90
9915;DHT22;4996;48.746;9.174;2023-04-25T06:22:40;9.90;99.90
9915;DHT22;4996;48.746;9.174;2023-04-25T06:25:06;9.90;99.90
9915;DHT22;4996;48.746;9.174;2023-04-25T06:27:33;10.00;99.90
9915;DHT22;4996;48.746;9.174;2023-04-25T06:29:58;10.10;99.90
9915;DHT22;4996;48.746;9.174;2023-04-25T06:32:24;10.10;99.90
9915;DHT22;4996;48.746;9.174;2023-04-25T06:34:50;10.10;99.90
9915;DHT22;4996;48.746;9.174;2023-04-25T06:37:15;10.10;99.90
9915;DHT22;4996;48.746;9.174;2023-04-25T06:39:41;10.10;99.90
9915;DHT22;4996;48.746;9.174;2023-04-25T06:42:06;10.10;99.90
9915;DHT22;4996;48.746;9.174;2023-04-25T06:44:32;10.20;99.90
9915;DHT22;4996;48.746;9.174;2023-04-25T06:46:57;10.10;99.90
9915;DHT22;4996;48.746;9.174;2023-04-25T06:49:23;10.00;99.90
9915;DHT22;4996;48.746;9.174;2023-04-25T06:51:48;10.10;99.90
9915;DHT22;4996;48.746;9.174;2023-04-25T06:54:14;10.00;99.90
9915;DHT22;4996;48.746;9.174;2023-04-25T06:56:40;10.00;99.90
9915;DHT22;4996;48.746;9.174;2023-04-25T06:59:06;10.00;99.90
9915;DHT22;4996;48.746;9.174;2023-04-25T07:01:31;10.00;99.90
9915;DHT22;4996;48.746;9.174;2023-04-25T07:03:57;9.90;99.90
9915;DHT22;4996;48.746;9.174;2023-04-25T07:06:22;9.90;99.90
9915;DHT22;4996;48.746;9.174;2023-04-25T07:08:48;9.90;99.90
9915;DHT22;4996;48.746;9.174;2023-04-25T07:11:14;9.90;99.90
9915;DHT22;4996;48.746;9.174;2023-04-25T07:13:39;9.80;99.90
9915;DHT22;4996;48.746;9.174;2023-04-25T07:16:05;9.70;99.90
9915;DHT22;4996;48.746;9.174;2023-04-25T07:18:30;9.70;99.90
9915;DHT22;4996;48.746;9.174;2023-04-25T07:20:56;9.70;99.90
9915;DHT22;4996;48.746;9.174;2023-04-25T07:23:21;9.70;99.90
9915;DHT22;4996;48.746;9.174;2023-04-25T07:25:47;9.70;99.90
9915;DHT22;4996;48.746;9.174;2023-04-25T07:28:12;9.60;99.90
9915;DHT22;4996;48.746;9.174;2023-04-25T07:30:38;9.60;99.90
9915;DHT22;4996;48.746;9.174;2023-04-25T07:33:03;9.50;99.90
9915;DHT22;4996;48.746;9.174;2023-04-25T07:35:29;9.50;99.90
9915;DHT22;4996;48.746;9.174;2023-04-25T07:37:55;9.90;99.90
9915;DHT22;4996;48.746;9.174;2023-04-25T07:40:20;9.60;99.90
9915;DHT22;4996;48.746;9.174;2023-04-25T07:42:46;9.50;99.90
9915;DHT22;4996;48.746;9.174;2023-04-25T07:45:12;9.40;99.90
9915;DHT22;4996;48.746;9.174;2023-04-25T07:47:37;9.30;99.90
9915;DHT22;4996;48.746;9.174;2023-04-25T07:50:04;9.40;99.90
9915;DHT22;4996;48.746;9.174;2023-04-25T07:52:29;9.30;99.90
9915;DHT22;4996;48.746;9.174;2023-04-25T07:54:55;9.30;99.90
9915;DHT22;4996;48.746;9.174;2023-04-25T07:57:20;9.20;99.90
9915;DHT22;4996;48.746;9.174;2023-04-25T07:59:46;9.10;99.90
9915;DHT22;4996;48.746;9.174;2023-04-25T08:02:11;9.20;99.90
9915;DHT22;4996;48.746;9.174;2023-04-25T08:04:37;9.30;99.90
9915;DHT22;4996;48.746;9.174;2023-04-25T08:07:02;9.30;99.90
9915;DHT22;4996;48.746;9.174;2023-04-25T08:09:28;9.30;99.90
9915;DHT22;4996;48.746;9.174;2023-04-25T08:11:54;9.40;99.90
9915;DHT22;4996;48.746;9.174;2023-04-25T08:14:20;9.40;99.90
9915;DHT22;4996;48.746;9.174;2023-04-25T08:16:45;9.50;99.90
9915;DHT22;4996;48.746;9.174;2023-04-25T08:19:11;9.50;99.90
9915;DHT22;4996;48.746;9.174;2023-04-25T08:21:37;9.30;99.90
9915;DHT22;4996;48.746;9.174;2023-04-25T08:24:02;9.30;99.90
9915;DHT22;4996;48.746;9.174;2023-04-25T08:26:28;9.30;99.90
9915;DHT22;4996;48.746;9.174;2023-04-25T08:28:54;9.20;99.90
9915;DHT22;4996;48.746;9.174;2023-04-25T08:31:20;9.20;99.90
9915;DHT22;4996;48.746;9.174;2023-04-25T08:33:46;9.20;99.90
9915;DHT22;4996;48.746;9.174;2023-04-25T08:36:11;9.10;99.90
9915;DHT22;4996;48.746;9.174;2023-04-25T08:38:37;9.10;99.90
9915;DHT22;4996;48.746;9.174;2023-04-25T08:41:03;9.10;99.90
9915;DHT22;4996;48.746;9.174;2023-04-25T08:43:30;9.20;99.90
9915;DHT22;4996;48.746;9.174;2023-04-25T08:46:00;9.00;99.90
9915;DHT22;4996;48.746;9.174;2023-04-25T08:48:32;9.00;99.90
9915;DHT22;4996;48.746;9.174;2023-04-25T08:50:58;9.20;99.90
9915;DHT22;4996;48.746;9.174;2023-04-25T08:53:28;9.20;99.90
9915;DHT22;4996;48.746;9.174;2023-04-25T08:55:55;9.40;99.90
9915;DHT22;4996;48.746;9.174;2023-04-25T08:58:22;9.30;99.90
9915;DHT22;4996;48.746;9.174;2023-04-25T09:00:49;9.20;99.90
9915;DHT22;4996;48.746;9.174;2023-04-25T09:03:16;9.40;99.90
9915;DHT22;4996;48.746;9.174;2023-04-25T09:05:42;9.50;99.90
9915;DHT22;4996;48.746;9.174;2023-04-25T09:08:08;9.60;99.90
9915;DHT22;4996;48.746;9.174;2023-04-25T09:10:34;9.50;99.90
9915;DHT22;4996;48.746;9.174;2023-04-25T09:13:44;9.50;99.90
9915;DHT22;4996;48.746;9.174;2023-04-25T09:15:53;9.40;99.90
9915;DHT22;4996;48.746;9.174;2023-04-25T09:18:32;9.50;99.90
9915;DHT22;4996;48.746;9.174;2023-04-25T09:21:08;9.60;99.90
9915;DHT22;4996;48.746;9.174;2023-04-25T09:23:49;9.40;99.90
9915;DHT22;4996;48.746;9.174;2023-04-25T09:26:19;9.30;99.90
9915;DHT22;4996;48.746;9.174;2023-04-25T09:28:45;9.30;99.90
9915;DHT22;4996;48.746;9.174;2023-04-25T09:31:11;9.20;99.90
9915;DHT22;4996;48.746;9.174;2023-04-25T09:33:37;9.20;99.90
9915;DHT22;4996;48.746;9.174;2023-04-25T09:36:08;9.20;99.90
9915;DHT22;4996;48.746;9.174;2023-04-25T09:38:46;9.20;99.90
9915;DHT22;4996;48.746;9.174;2023-04-25T09:41:12;9.40;99.90
9915;DHT22;4996;48.746;9.174;2023-04-25T09:43:38;9.30;99.90
9915;DHT22;4996;48.746;9.174;2023-04-25T09:46:09;9.40;99.90
9915;DHT22;4996;48.746;9.174;2023-04-25T09:48:36;9.10;99.90
9915;DHT22;4996;48.746;9.174;2023-04-25T09:53:31;9.00;99.90
9915;DHT22;4996;48.746;9.174;2023-04-25T09:55:59;8.90;99.90
9915;DHT22;4996;48.746;9.174;2023-04-25T09:58:25;8.80;99.90
9915;DHT22;4996;48.746;9.174;2023-04-25T10:01:02;8.90;99.90
9915;DHT22;4996;48.746;9.174;2023-04-25T10:03:33;8.90;99.90
9915;DHT22;4996;48.746;9.174;2023-04-25T10:06:03;8.80;99.90
9915;DHT22;4996;48.746;9.174;2023-04-25T10:08:33;8.60;99.90
9915;DHT22;4996;48.746;9.174;2023-04-25T10:11:06;8.50;99.90
9915;DHT22;4996;48.746;9.174;2023-04-25T10:13:33;8.40;99.90
9915;DHT22;4996;48.746;9.174;2023-04-25T10:16:00;8.60;99.90
9915;DHT22;4996;48.746;9.174;2023-04-25T10:18:27;8.50;99.90
9915;DHT22;4996;48.746;9.174;2023-04-25T10:20:59;8.60;99.90
9915;DHT22;4996;48.746;9.174;2023-04-25T10:23:25;8.70;99.90
9915;DHT22;4996;48.746;9.174;2023-04-25T10:25:52;8.70;99.90
9915;DHT22;4996;48.746;9.174;2023-04-25T10:28:18;8.60;99.90
9915;DHT22;4996;48.746;9.174;2023-04-25T10:33:39;8.70;99.90
9915;DHT22;4996;48.746;9.174;2023-04-25T10:36:22;8.90;99.90
9915;DHT22;4996;48.746;9.174;2023-04-25T10:38:50;8.60;99.90
9915;DHT22;4996;48.746;9.174;2023-04-25T10:41:18;8.50;99.90
9915;DHT22;4996;48.746;9.174;2023-04-25T10:43:45;8.30;99.90
9915;DHT22;4996;48.746;9.174;2023-04-25T10:46:27;8.60;99.90
9915;DHT22;4996;48.746;9.174;2023-04-25T10:49:00;8.50;99.90
9915;DHT22;4996;48.746;9.174;2023-04-25T10:51:28;8.50;99.90
9915;DHT22;4996;48.746;9.174;2023-04-25T10:54:05;8.60;99.90
9915;DHT22;4996;48.746;9.174;2023-04-25T10:56:37;8.80;99.90
9915;DHT22;4996;48.746;9.174;2023-04-25T10:59:12;8.80;99.90
9915;DHT22;4996;48.746;9.174;2023-04-25T11:01:42;8.70;99.90
9915;DHT22;4996;48.746;9.174;2023-04-25T11:04:23;8.60;99.90
9915;DHT22;4996;48.746;9.174;2023-04-25T11:09:45;8.40;99.90
9915;DHT22;4996;48.746;9.174;2023-04-25T11:12:11;8.40;99.90
9915;DHT22;4996;48.746;9.174;2023-04-25T11:14:37;8.00;99.90
9915;DHT22;4996;48.746;9.174;2023-04-25T11:17:03;8.20;99.90
9915;DHT22;4996;48.746;9.174;2023-04-25T11:19:29;7.80;99.90
9915;DHT22;4996;48.746;9.174;2023-04-25T11:21:56;8.00;99.90
9915;DHT22;4996;48.746;9.174;2023-04-25T11:24:29;8.10;99.90
9915;DHT22;4996;48.746;9.174;2023-04-25T11:26:55;8.30;99.90
9915;DHT22;4996;48.746;9.174;2023-04-25T11:29:27;8.40;99.90
9915;DHT22;4996;48.746;9.174;2023-04-25T11:31:53;8.30;99.90
9915;DHT22;4996;48.746;9.174;2023-04-25T11:34:18;8.40;99.90
9915;DHT22;4996;48.746;9.174;2023-04-25T11:36:45;8.50;99.90
9915;DHT22;4996;48.746;9.174;2023-04-25T11:39:11;8.40;99.90
9915;DHT22;4996;48.746;9.174;2023-04-25T11:41:41;8.60;99.90
9915;DHT22;4996;48.746;9.174;2023-04-25T11:44:07;8.70;99.90
9915;DHT22;4996;48.746;9.174;2023-04-25T11:46:35;8.70;99.90
9915;DHT22;4996;48.746;9.174;2023-04-25T11:49:01;8.80;99.90
9915;DHT22;4996;48.746;9.174;2023-04-25T11:51:27;8.60;99.90
9915;DHT22;4996;48.746;9.174;2023-04-25T11:53:52;8.80;99.90
9915;DHT22;4996;48.746;9.174;2023-04-25T11:56:18;9.00;99.90
9915;DHT22;4996;48.746;9.174;2023-04-25T11:59:03;9.10;99.90
9915;DHT22;4996;48.746;9.174;2023-04-25T12:01:33;9.20;99.90
9915;DHT22;4996;48.746;9.174;2023-04-25T12:04:14;9.40;99.90
9915;DHT22;4996;48.746;9.174;2023-04-25T12:06:41;9.40;99.90
9915;DHT22;4996;48.746;9.174;2023-04-25T12:09:11;9.30;99.90
9915;DHT22;4996;48.746;9.174;2023-04-25T12:11:41;9.00;99.90
9915;DHT22;4996;48.746;9.174;2023-04-25T12:14:08;9.10;99.90
9915;DHT22;4996;48.746;9.174;2023-04-25T12:16:41;9.00;99.90
9915;DHT22;4996;48.746;9.174;2023-04-25T12:19:07;9.10;99.90
9915;DHT22;4996;48.746;9.174;2023-04-25T12:21:32;9.20;99.90
9915;DHT22;4996;48.746;9.174;2023-04-25T12:24:23;9.20;99.90
9915;DHT22;4996;48.746;9.174;2023-04-25T12:26:58;9.20;99.90
9915;DHT22;4996;48.746;9.174;2023-04-25T12:29:26;9.30;99.90
9915;DHT22;4996;48.746;9.174;2023-04-25T12:31:53;9.30;99.90
9915;DHT22;4996;48.746;9.174;2023-04-25T12:34:20;9.20;99.90
9915;DHT22;4996;48.746;9.174;2023-04-25T12:36:47;9.00;99.90
9915;DHT22;4996;48.746;9.174;2023-04-25T12:39:23;9.10;99.90
9915;DHT22;4996;48.746;9.174;2023-04-25T12:41:50;9.20;99.90
9915;DHT22;4996;48.746;9.174;2023-04-25T12:44:17;9.10;99.90
9915;DHT22;4996;48.746;9.174;2023-04-25T12:46:43;9.30;99.90
9915;DHT22;4996;48.746;9.174;2023-04-25T12:49:08;9.50;99.90
9915;DHT22;4996;48.746;9.174;2023-04-25T12:51:35;9.70;99.90
9915;DHT22;4996;48.746;9.174;2023-04-25T12:54:04;9.80;99.90
9915;DHT22;4996;48.746;9.174;2023-04-25T12:56:31;9.90;99.90
9915;DHT22;4996;48.746;9.174;2023-04-25T12:58:57;10.20;99.90
9915;DHT22;4996;48.746;9.174;2023-04-25T13:01:23;10.40;99.90
9915;DHT22;4996;48.746;9.174;2023-04-25T13:03:49;10.50;99.90
9915;DHT22;4996;48.746;9.174;2023-04-25T13:06:15;10.60;99.90
9915;DHT22;4996;48.746;9.174;2023-04-25T13:08:41;10.90;99.90
9915;DHT22;4996;48.746;9.174;2023-04-25T13:11:07;11.10;99.90
9915;DHT22;4996;48.746;9.174;2023-04-25T13:13:33;10.90;99.90
9915;DHT22;4996;48.746;9.174;2023-04-25T13:16:01;11.00;99.90
9915;DHT22;4996;48.746;9.174;2023-04-25T13:18:27;11.20;99.90
9915;DHT22;4996;48.746;9.174;2023-04-25T13:20:53;11.40;99.90
9915;DHT22;4996;48.746;9.174;2023-04-25T13:23:19;11.70;99.90
9915;DHT22;4996;48.746;9.174;2023-04-25T13:25:46;11.40;99.90
9915;DHT22;4996;48.746;9.174;2023-04-25T13:28:12;11.30;99.90
9915;DHT22;4996;48.746;9.174;2023-04-25T13:30:37;11.60;99.90
9915;DHT22;4996;48.746;9.174;2023-04-25T13:33:03;11.70;99.90
9915;DHT22;4996;48.746;9.174;2023-04-25T13:35:30;11.80;99.90
9915;DHT22;4996;48.746;9.174;2023-04-25T13:37:56;12.00;99.90
9915;DHT22;4996;48.746;9.174;2023-04-25T13:40:21;12.00;99.90
9915;DHT22;4996;48.746;9.174;2023-04-25T13:42:47;12.00;99.90
9915;DHT22;4996;48.746;9.174;2023-04-25T13:45:12;11.80;99.90
9915;DHT22;4996;48.746;9.174;2023-04-25T13:47:38;11.70;99.90
9915;DHT22;4996;48.746;9.174;2023-04-25T13:50:05;11.50;99.90
9915;DHT22;4996;48.746;9.174;2023-04-25T13:52:31;11.40;99.90
9915;DHT22;4996;48.746;9.174;2023-04-25T13:54:57;11.60;99.90
9915;DHT22;4996;48.746;9.174;2023-04-25T13:57:22;11.40;99.90
9915;DHT22;4996;48.746;9.174;2023-04-25T13:59:48;11.30;99.90
9915;DHT22;4996;48.746;9.174;2023-04-25T14:02:14;11.20;99.90
9915;DHT22;4996;48.746;9.174;2023-04-25T14:04:40;11.10;99.90
9915;DHT22;4996;48.746;9.174;2023-04-25T14:07:05;11.00;99.90
9915;DHT22;4996;48.746;9.174;2023-04-25T14:09:31;11.20;99.90
9915;DHT22;4996;48.746;9.174;2023-04-25T14:11:56;11.30;99.90
9915;DHT22;4996;48.746;9.174;2023-04-25T14:14:23;11.50;99.90
9915;DHT22;4996;48.746;9.174;2023-04-25T14:16:49;11.60;99.90
9915;DHT22;4996;48.746;9.174;2023-04-25T14:19:15;11.80;99.90
9915;DHT22;4996;48.746;9.174;2023-04-25T14:21:41;12.00;99.90
9915;DHT22;4996;48.746;9.174;2023-04-25T14:24:08;12.20;99.90
9915;DHT22;4996;48.746;9.174;2023-04-25T14:26:34;12.10;99.90
9915;DHT22;4996;48.746;9.174;2023-04-25T14:29:04;12.10;99.90
9915;DHT22;4996;48.746;9.174;2023-04-25T14:31:30;12.10;99.90
9915;DHT22;4996;48.746;9.174;2023-04-25T14:33:56;12.10;99.90
9915;DHT22;4996;48.746;9.174;2023-04-25T14:36:21;12.00;99.90
9915;DHT22;4996;48.746;9.174;2023-04-25T14:38:47;12.10;99.90
9915;DHT22;4996;48.746;9.174;2023-04-25T14:41:12;11.90;99.90
9915;DHT22;4996;48.746;9.174;2023-04-25T14:43:38;11.90;99.90
9915;DHT22;4996;48.746;9.174;2023-04-25T14:46:06;11.80;99.90
9915;DHT22;4996;48.746;9.174;2023-04-25T14:48:32;11.60;99.90
9915;DHT22;4996;48.746;9.174;2023-04-25T14:50:57;11.60;99.90
9915;DHT22;4996;48.746;9.174;2023-04-25T14:53:23;11.70;99.90
9915;DHT22;4996;48.746;9.174;2023-04-25T14:55:49;11.60;99.90
9915;DHT22;4996;48.746;9.174;2023-04-25T14:58:14;11.60;99.90
9915;DHT22;4996;48.746;9.174;2023-04-25T15:00:40;11.60;99.90
9915;DHT22;4996;48.746;9.174;2023-04-25T15:03:06;11.50;99.90
9915;DHT22;4996;48.746;9.174;2023-04-25T15:05:33;11.60;99.90
9915;DHT22;4996;48.746;9.174;2023-04-25T15:07:59;11.70;99.90
9915;DHT22;4996;48.746;9.174;2023-04-25T15:10:25;11.50;99.90
9915;DHT22;4996;48.746;9.174;2023-04-25T15:12:51;11.70;99.90
9915;DHT22;4996;48.746;9.174;2023-04-25T15:15:18;11.90;99.90
9915;DHT22;4996;48.746;9.174;2023-04-25T15:17:44;11.90;99.90
9915;DHT22;4996;48.746;9.174;2023-04-25T15:20:11;11.90;99.90
9915;DHT22;4996;48.746;9.174;2023-04-25T15:22:39;12.00;99.90
9915;DHT22;4996;48.746;9.174;2023-04-25T15:25:06;12.10;99.90
9915;DHT22;4996;48.746;9.174;2023-04-25T15:27:36;12.20;99.90
9915;DHT22;4996;48.746;9.174;2023-04-25T15:30:09;12.20;99.90
9915;DHT22;4996;48.746;9.174;2023-04-25T15:32:36;12.20;99.90
9915;DHT22;4996;48.746;9.174;2023-04-25T15:35:04;11.90;99.90
9915;DHT22;4996;48.746;9.174;2023-04-25T15:37:31;11.80;99.90
9915;DHT22;4996;48.746;9.174;2023-04-25T15:40:02;11.70;99.90
9915;DHT22;4996;48.746;9.174;2023-04-25T15:42:31;11.90;99.90
9915;DHT22;4996;48.746;9.174;2023-04-25T15:44:57;12.00;99.90
9915;DHT22;4996;48.746;9.174;2023-04-25T15:47:22;11.90;99.90
9915;DHT22;4996;48.746;9.174;2023-04-25T15:49:48;12.00;99.90
9915;DHT22;4996;48.746;9.174;2023-04-25T15:52:13;12.00;99.90
9915;DHT22;4996;48.746;9.174;2023-04-25T15:54:39;12.00;99.90
9915;DHT22;4996;48.746;9.174;2023-04-25T15:57:04;12.00;99.90
9915;DHT22;4996;48.746;9.174;2023-04-25T15:59:30;11.70;99.90
9915;DHT22;4996;48.746;9.174;2023-04-25T16:01:56;11.70;99.90
9915;DHT22;4996;48.746;9.174;2023-04-25T16:04:21;11.50;99.90
9915;DHT22;4996;48.746;9.174;2023-04-25T16:06:49;11.30;99.90
9915;DHT22;4996;48.746;9.174;2023-04-25T16:09:14;11.20;99.90
9915;DHT22;4996;48.746;9.174;2023-04-25T16:11:41;11.40;99.90
9915;DHT22;4996;48.746;9.174;2023-04-25T16:14:07;11.40;99.90
9915;DHT22;4996;48.746;9.174;2023-04-25T16:16:33;11.30;99.90